sensor_id;sensor_type;location;lat;lon;timestamp;pressure;altitude;pressure_sealevel;temperature;humidity
16194;BME280;8204;53.582;10.080;2022-11-20T00:01:13;100593.19;;;4.31;100.00
16194;BME280;8204;53.582;10.080;2022-11-20T00:03:42;100594.53;;;4.26;100.00
16194;BME280;8204;53.582;10.080;2022-11-20T00:06:13;100588.75;;;4.22;100.00
16194;BME280;8204;53.582;10.080;2022-11-20T00:08:46;100591.94;;;4.26;100.00
16194;BME280;8204;53.582;10.080;2022-11-20T00:11:16;100584.25;;;4.24;100.00
16194;BME280;8204;53.582;10.080;2022-11-20T00:13:48;100588.50;;;4.25;100.00
16194;BME280;8204;53.582;10.080;2022-11-20T00:16:19;100589.22;;;4.27;100.00
16194;BME280;8204;53.582;10.080;2022-11-20T00:18:48;100584.03;;;4.27;100.00
16194;BME280;8204;53.582;10.080;2022-11-20T00:21:18;100586.63;;;4.27;100.00
16194;BME280;8204;53.582;10.080;2022-11-20T00:23:51;100576.38;;;4.26;100.00
16194;BME280;8204;53.582;10.080;2022-11-20T00:26:21;100577.56;;;4.22;100.00
16194;BME280;8204;53.582;10.080;2022-11-20T00:28:52;100576.75;;;4.21;100.00
16194;BME280;8204;53.582;10.080;2022-11-20T00:31:22;100572.38;;;4.22;100.00
16194;BME280;8204;53.582;10.080;2022-11-20T00:33:51;100567.31;;;4.20;100.00
16194;BME280;8204;53.582;10.080;2022-11-20T00:36:22;100574.97;;;4.22;100.00
16194;BME280;8204;53.582;10.080;2022-11-20T00:38:54;100559.78;;;4.17;100.00
16194;BME280;8204;53.582;10.080;2022-11-20T00:41:24;100554.59;;;4.17;100.00
16194;BME280;8204;53.582;10.080;2022-11-20T00:43:54;100543.66;;;4.14;100.00
16194;BME280;8204;53.582;10.080;2022-11-20T00:46:24;100524.44;;;4.16;100.00
16194;BME280;8204;53.582;10.080;2022-11-20T00:48:53;100531.28;;;4.17;100.00
16194;BME280;8204;53.582;10.080;2022-11-20T00:51:24;100526.09;;;4.17;100.00
16194;BME280;8204;53.582;10.080;2022-11-20T00:53:57;100513.13;;;4.17;100.00
16194;BME280;8204;53.582;10.080;2022-11-20T00:56:28;100513.81;;;4.19;100.00
16194;BME280;8204;53.582;10.080;2022-11-20T00:58:59;100518.31;;;4.17;100.00
16194;BME280;8204;53.582;10.080;2022-11-20T01:01:28;100511.47;;;4.16;100.00
16194;BME280;8204;53.582;10.080;2022-11-20T01:03:59;100509.56;;;4.18;100.00
16194;BME280;8204;53.582;10.080;2022-11-20T01:06:30;100501.28;;;4.24;100.00
16194;BME280;8204;53.582;10.080;2022-11-20T01:09:06;100513.66;;;4.21;100.00
16194;BME280;8204;53.582;10.080;2022-11-20T01:11:37;100508.47;;;4.21;100.00
16194;BME280;8204;53.582;10.080;2022-11-20T01:14:12;100502.50;;;4.20;100.00
16194;BME280;8204;53.582;10.080;2022-11-20T01:16:43;100502.13;;;4.25;100.00
16194;BME280;8204;53.582;10.080;2022-11-20T01:19:14;100503.28;;;4.21;100.00
16194;BME280;8204;53.582;10.080;2022-11-20T01:21:44;100489.66;;;4.19;100.00
16194;BME280;8204;53.582;10.080;2022-11-20T01:24:17;100477.94;;;4.24;100.00
16194;BME280;8204;53.582;10.080;2022-11-20T01:26:48;100476.63;;;4.09;100.00
16194;BME280;8204;53.582;10.080;2022-11-20T01:29:18;100448.84;;;4.00;100.00
16194;BME280;8204;53.582;10.080;2022-11-20T01:31:48;100419.69;;;4.08;100.00
16194;BME280;8204;53.582;10.080;2022-11-20T01:34:19;100406.06;;;4.06;100.00
16194;BME280;8204;53.582;10.080;2022-11-20T01:36:50;100403.09;;;4.10;100.00
16194;BME280;8204;53.582;10.080;2022-11-20T01:39:23;100401.06;;;4.14;100.00
16194;BME280;8204;53.582;10.080;2022-11-20T01:41:54;100392.22;;;4.16;100.00
16194;BME280;8204;53.582;10.080;2022-11-20T01:44:56;100395.75;;;4.15;100.00
16194;BME280;8204;53.582;10.080;2022-11-20T01:47:31;100380.69;;;4.09;100.00
16194;BME280;8204;53.582;10.080;2022-11-20T01:50:04;100381.50;;;4.10;100.00
16194;BME280;8204;53.582;10.080;2022-11-20T01:52:37;100373.59;;;4.11;100.00
16194;BME280;8204;53.582;10.080;2022-11-20T01:55:13;100372.09;;;4.09;100.00
16194;BME280;8204;53.582;10.080;2022-11-20T01:57:43;100366.91;;;4.09;100.00
16194;BME280;8204;53.582;10.080;2022-11-20T02:00:16;100357.75;;;4.05;100.00
16194;BME280;8204;53.582;10.080;2022-11-20T02:02:54;100356.91;;;4.04;100.00
16194;BME280;8204;53.582;10.080;2022-11-20T02:05:29;100333.59;;;4.04;100.00
16194;BME280;8204;53.582;10.080;2022-11-20T02:08:00;100327.97;;;3.99;100.00
16194;BME280;8204;53.582;10.080;2022-11-20T02:10:33;100306.00;;;3.94;100.00
16194;BME280;8204;53.582;10.080;2022-11-20T02:13:02;100288.28;;;3.99;100.00
16194;BME280;8204;53.582;10.080;2022-11-20T02:15:44;100285.72;;;4.08;100.00
16194;BME280;8204;53.582;10.080;2022-11-20T02:18:16;100289.28;;;4.07;100.00
16194;BME280;8204;53.582;10.080;2022-11-20T02:20:48;100275.38;;;4.08;100.00
16194;BME280;8204;53.582;10.080;2022-11-20T02:23:23;100283.53;;;4.04;100.00
16194;BME280;8204;53.582;10.080;2022-11-20T02:25:57;100281.63;;;4.06;100.00
16194;BME280;8204;53.582;10.080;2022-11-20T02:28:27;100277.97;;;4.08;100.00
16194;BME280;8204;53.582;10.080;2022-11-20T02:30:56;100276.63;;;4.14;100.00
16194;BME280;8204;53.582;10.080;2022-11-20T02:33:24;100266.38;;;4.12;100.00
16194;BME280;8204;53.582;10.080;2022-11-20T02:35:53;100270.38;;;4.16;100.00
16194;BME280;8204;53.582;10.080;2022-11-20T02:38:22;100281.63;;;4.06;100.00
16194;BME280;8204;53.582;10.080;2022-11-20T02:40:51;100281.53;;;4.17;100.00
16194;BME280;8204;53.582;10.080;2022-11-20T02:43:23;100287.63;;;4.06;100.00
16194;BME280;8204;53.582;10.080;2022-11-20T02:45:51;100286.69;;;4.07;100.00
16194;BME280;8204;53.582;10.080;2022-11-20T02:48:20;100285.03;;;4.06;100.00
16194;BME280;8204;53.582;10.080;2022-11-20T02:50:49;100273.97;;;4.04;100.00
16194;BME280;8204;53.582;10.080;2022-11-20T02:53:18;100271.38;;;4.04;100.00
16194;BME280;8204;53.582;10.080;2022-11-20T02:55:47;100266.88;;;4.06;100.00
16194;BME280;8204;53.582;10.080;2022-11-20T02:58:19;100275.63;;;4.05;100.00
16194;BME280;8204;53.582;10.080;2022-11-20T03:00:50;100272.63;;;4.10;100.00
16194;BME280;8204;53.582;10.080;2022-11-20T03:03:20;100278.09;;;4.07;100.00
16194;BME280;8204;53.582;10.080;2022-11-20T03:05:48;100278.19;;;4.05;100.00
16194;BME280;8204;53.582;10.080;2022-11-20T03:08:17;100271.38;;;4.04;100.00
16194;BME280;8204;53.582;10.080;2022-11-20T03:10:46;100270.44;;;4.05;100.00
16194;BME280;8204;53.582;10.080;2022-11-20T03:13:15;100274.53;;;4.08;100.00
16194;BME280;8204;53.582;10.080;2022-11-20T03:15:44;100277.00;;;4.09;100.00
16194;BME280;8204;53.582;10.080;2022-11-20T03:18:15;100288.84;;;4.02;100.00
16194;BME280;8204;53.582;10.080;2022-11-20T03:20:44;100283.81;;;4.01;100.00
16194;BME280;8204;53.582;10.080;2022-11-20T03:23:13;100286.81;;;4.06;100.00
16194;BME280;8204;53.582;10.080;2022-11-20T03:25:41;100276.31;;;4.07;100.00
16194;BME280;8204;53.582;10.080;2022-11-20T03:28:10;100284.78;;;4.09;100.00
16194;BME280;8204;53.582;10.080;2022-11-20T03:30:39;100285.16;;;4.05;100.00
16194;BME280;8204;53.582;10.080;2022-11-20T03:33:08;100296.91;;;4.09;100.00
16194;BME280;8204;53.582;10.080;2022-11-20T03:35:39;100287.38;;;4.09;100.00
16194;BME280;8204;53.582;10.080;2022-11-20T03:38:08;100296.66;;;4.12;100.00
16194;BME280;8204;53.582;10.080;2022-11-20T03:40:37;100284.91;;;4.08;100.00
16194;BME280;8204;53.582;10.080;2022-11-20T03:43:06;100287.91;;;4.03;100.00
16194;BME280;8204;53.582;10.080;2022-11-20T03:45:34;100283.22;;;3.97;100.00
16194;BME280;8204;53.582;10.080;2022-11-20T03:48:04;100279.94;;;3.95;100.00
16194;BME280;8204;53.582;10.080;2022-11-20T03:50:33;100277.91;;;3.99;100.00
16194;BME280;8204;53.582;10.080;2022-11-20T03:53:04;100261.53;;;3.98;100.00
16194;BME280;8204;53.582;10.080;2022-11-20T03:55:33;100258.13;;;3.98;100.00
16194;BME280;8204;53.582;10.080;2022-11-20T03:58:02;100261.97;;;4.03;100.00
16194;BME280;8204;53.582;10.080;2022-11-20T04:00:31;100269.47;;;4.06;100.00
16194;BME280;8204;53.582;10.080;2022-11-20T04:02:59;100265.81;;;4.09;100.00
16194;BME280;8204;53.582;10.080;2022-11-20T04:05:28;100268.09;;;4.02;100.00
16194;BME280;8204;53.582;10.080;2022-11-20T04:07:57;100270.69;;;4.02;100.00
16194;BME280;8204;53.582;10.080;2022-11-20T04:10:28;100268.09;;;4.02;100.00
16194;BME280;8204;53.582;10.080;2022-11-20T04:12:57;100275.88;;;4.02;100.00
16194;BME280;8204;53.582;10.080;2022-11-20T04:15:26;100280.22;;;4.02;100.00
16194;BME280;8204;53.582;10.080;2022-11-20T04:17:55;100278.28;;;3.94;100.00
16194;BME280;8204;53.582;10.080;2022-11-20T04:20:24;100276.56;;;4.04;100.00
16194;BME280;8204;53.582;10.080;2022-11-20T04:22:53;100279.56;;;4.00;100.00
16194;BME280;8204;53.582;10.080;2022-11-20T04:25:22;100275.19;;;4.00;100.00
16194;BME280;8204;53.582;10.080;2022-11-20T04:27:53;100266.59;;;4.00;100.00
16194;BME280;8204;53.582;10.080;2022-11-20T04:30:22;100257.31;;;3.97;100.00
16194;BME280;8204;53.582;10.080;2022-11-20T04:32:51;100259.13;;;4.06;100.00
16194;BME280;8204;53.582;10.080;2022-11-20T04:35:20;100250.63;;;4.04;100.00
16194;BME280;8204;53.582;10.080;2022-11-20T04:37:51;100264.06;;;4.09;100.00
16194;BME280;8204;53.582;10.080;2022-11-20T04:40:19;100273.34;;;4.12;100.00
16194;BME280;8204;53.582;10.080;2022-11-20T04:42:48;100270.75;;;4.12;100.00
16194;BME280;8204;53.582;10.080;2022-11-20T04:45:20;100253.94;;;4.06;100.00
16194;BME280;8204;53.582;10.080;2022-11-20T04:47:49;100262.53;;;4.07;100.00
16194;BME280;8204;53.582;10.080;2022-11-20T04:50:18;100261.88;;;4.14;100.00
16194;BME280;8204;53.582;10.080;2022-11-20T04:52:47;100263.91;;;4.11;100.00
16194;BME280;8204;53.582;10.080;2022-11-20T04:55:16;100256.00;;;4.12;100.00
16194;BME280;8204;53.582;10.080;2022-11-20T04:57:44;100258.47;;;4.14;100.00
16194;BME280;8204;53.582;10.080;2022-11-20T05:00:15;100255.06;;;4.13;100.00
16194;BME280;8204;53.582;10.080;2022-11-20T05:02:46;100240.19;;;4.15;100.00
16194;BME280;8204;53.582;10.080;2022-11-20T05:05:15;100248.78;;;4.16;100.00
16194;BME280;8204;53.582;10.080;2022-11-20T05:07:44;100247.03;;;4.16;100.00
16194;BME280;8204;53.582;10.080;2022-11-20T05:10:13;100250.00;;;4.12;100.00
16194;BME280;8204;53.582;10.080;2022-11-20T05:12:42;100237.44;;;4.07;100.00
16194;BME280;8204;53.582;10.080;2022-11-20T05:15:11;100237.69;;;4.04;100.00
16194;BME280;8204;53.582;10.080;2022-11-20T05:17:40;100225.84;;;4.11;100.00
16194;BME280;8204;53.582;10.080;2022-11-20T05:20:11;100234.41;;;4.02;100.00
16194;BME280;8204;53.582;10.080;2022-11-20T05:22:41;100237.69;;;4.04;100.00
16194;BME280;8204;53.582;10.080;2022-11-20T05:25:09;100230.34;;;4.09;100.00
16194;BME280;8204;53.582;10.080;2022-11-20T05:27:38;100235.91;;;4.05;100.00
16194;BME280;8204;53.582;10.080;2022-11-20T05:30:09;100233.56;;;4.02;100.00
16194;BME280;8204;53.582;10.080;2022-11-20T05:32:38;100233.84;;;3.99;100.00
16194;BME280;8204;53.582;10.080;2022-11-20T05:35:07;100221.97;;;3.96;100.00
16194;BME280;8204;53.582;10.080;2022-11-20T05:37:38;100216.41;;;4.01;100.00
16194;BME280;8204;53.582;10.080;2022-11-20T05:40:09;100215.56;;;4.00;100.00
16194;BME280;8204;53.582;10.080;2022-11-20T05:42:38;100200.31;;;3.97;100.00
16194;BME280;8204;53.582;10.080;2022-11-20T05:45:09;100189.47;;;3.92;100.00
16194;BME280;8204;53.582;10.080;2022-11-20T05:47:38;100182.22;;;3.86;100.00
16194;BME280;8204;53.582;10.080;2022-11-20T05:50:07;100162.72;;;3.82;100.00
16194;BME280;8204;53.582;10.080;2022-11-20T05:52:39;100150.16;;;3.78;100.00
16194;BME280;8204;53.582;10.080;2022-11-20T05:55:08;100136.13;;;3.80;100.00
16194;BME280;8204;53.582;10.080;2022-11-20T05:57:37;100142.56;;;3.86;100.00
16194;BME280;8204;53.582;10.080;2022-11-20T06:00:07;100135.59;;;3.86;100.00
16194;BME280;8204;53.582;10.080;2022-11-20T06:02:37;100133.13;;;3.85;100.00
16194;BME280;8204;53.582;10.080;2022-11-20T06:05:06;100140.22;;;3.83;100.00
16194;BME280;8204;53.582;10.080;2022-11-20T06:07:35;100132.91;;;3.67;100.00
16194;BME280;8204;53.582;10.080;2022-11-20T06:10:07;100131.72;;;3.71;100.00
16194;BME280;8204;53.582;10.080;2022-11-20T06:12:36;100115.22;;;3.72;100.00
16194;BME280;8204;53.582;10.080;2022-11-20T06:15:06;100122.97;;;3.72;100.00
16194;BME280;8204;53.582;10.080;2022-11-20T06:17:35;100105.56;;;3.74;100.00
16194;BME280;8204;53.582;10.080;2022-11-20T06:20:05;100115.91;;;3.74;100.00
16194;BME280;8204;53.582;10.080;2022-11-20T06:22:34;100109.66;;;3.77;100.00
16194;BME280;8204;53.582;10.080;2022-11-20T06:25:03;100121.66;;;3.78;100.00
16194;BME280;8204;53.582;10.080;2022-11-20T06:27:34;100122.47;;;3.78;100.00
16194;BME280;8204;53.582;10.080;2022-11-20T06:30:04;100117.34;;;3.88;100.00
16194;BME280;8204;53.582;10.080;2022-11-20T06:32:33;100130.41;;;3.86;100.00
16194;BME280;8204;53.582;10.080;2022-11-20T06:35:02;100138.19;;;3.86;100.00
16194;BME280;8204;53.582;10.080;2022-11-20T06:37:31;100132.31;;;3.84;100.00
16194;BME280;8204;53.582;10.080;2022-11-20T06:40:00;100132.31;;;3.84;100.00
16194;BME280;8204;53.582;10.080;2022-11-20T06:42:29;100125.22;;;3.86;100.00
16194;BME280;8204;53.582;10.080;2022-11-20T06:45:00;100135.47;;;3.88;100.00
16194;BME280;8204;53.582;10.080;2022-11-20T06:47:29;100146.22;;;3.83;100.00
16194;BME280;8204;53.582;10.080;2022-11-20T06:49:58;100142.94;;;3.81;100.00
16194;BME280;8204;53.582;10.080;2022-11-20T06:52:27;100121.13;;;3.84;100.00
16194;BME280;8204;53.582;10.080;2022-11-20T06:54:56;100119.47;;;3.83;100.00
16194;BME280;8204;53.582;10.080;2022-11-20T06:57:25;100117.59;;;3.85;100.00
16194;BME280;8204;53.582;10.080;2022-11-20T06:59:53;100131.47;;;3.74;100.00
16194;BME280;8204;53.582;10.080;2022-11-20T07:02:25;100111.44;;;3.76;100.00
16194;BME280;8204;53.582;10.080;2022-11-20T07:04:54;100106.09;;;3.78;100.00
16194;BME280;8204;53.582;10.080;2022-11-20T07:07:23;100102.59;;;3.88;100.00
16194;BME280;8204;53.582;10.080;2022-11-20T07:09:52;100102.59;;;3.88;100.00
16194;BME280;8204;53.582;10.080;2022-11-20T07:12:21;100110.38;;;3.88;100.00
16194;BME280;8204;53.582;10.080;2022-11-20T07:14:49;100115.97;;;3.93;100.00
16194;BME280;8204;53.582;10.080;2022-11-20T07:17:18;100119.97;;;3.97;100.00
16194;BME280;8204;53.582;10.080;2022-11-20T07:19:49;100128.50;;;3.88;100.00
16194;BME280;8204;53.582;10.080;2022-11-20T07:22:18;100143.75;;;3.82;100.00
16194;BME280;8204;53.582;10.080;2022-11-20T07:24:47;100154.66;;;3.85;100.00
16194;BME280;8204;53.582;10.080;2022-11-20T07:27:16;100140.09;;;3.84;100.00
16194;BME280;8204;53.582;10.080;2022-11-20T07:29:45;100136.28;;;3.88;100.00
16194;BME280;8204;53.582;10.080;2022-11-20T07:32:14;100147.69;;;3.76;100.00
16194;BME280;8204;53.582;10.080;2022-11-20T07:34:43;100137.38;;;3.86;100.00
16194;BME280;8204;53.582;10.080;2022-11-20T07:37:15;100127.81;;;3.86;100.00
16194;BME280;8204;53.582;10.080;2022-11-20T07:39:44;100130.78;;;3.82;100.00
16194;BME280;8204;53.582;10.080;2022-11-20T07:42:13;100129.28;;;3.79;100.00
16194;BME280;8204;53.582;10.080;2022-11-20T07:44:42;100115.69;;;3.87;100.00
16194;BME280;8204;53.582;10.080;2022-11-20T07:47:11;100139.78;;;3.78;100.00
16194;BME280;8204;53.582;10.080;2022-11-20T07:49:40;100147.00;;;3.74;100.00
16194;BME280;8204;53.582;10.080;2022-11-20T07:52:09;100151.94;;;3.77;100.00
16194;BME280;8204;53.582;10.080;2022-11-20T07:54:40;100140.50;;;3.80;100.00
16194;BME280;8204;53.582;10.080;2022-11-20T07:57:09;100142.94;;;3.81;100.00
16194;BME280;8204;53.582;10.080;2022-11-20T07:59:38;100160.66;;;3.76;100.00
16194;BME280;8204;53.582;10.080;2022-11-20T08:02:09;100151.09;;;3.77;100.00
16194;BME280;8204;53.582;10.080;2022-11-20T08:04:38;100157.13;;;3.77;100.00
16194;BME280;8204;53.582;10.080;2022-11-20T08:07:07;100167.47;;;3.77;100.00
16194;BME280;8204;53.582;10.080;2022-11-20T08:09:36;100164.22;;;3.85;100.00
16194;BME280;8204;53.582;10.080;2022-11-20T08:12:07;100163.66;;;3.81;100.00
16194;BME280;8204;53.582;10.080;2022-11-20T08:14:48;100163.56;;;3.92;100.00
16194;BME280;8204;53.582;10.080;2022-11-20T08:17:18;100180.19;;;3.90;100.00
16194;BME280;8204;53.582;10.080;2022-11-20T08:19:46;100192.88;;;3.83;100.00
16194;BME280;8204;53.582;10.080;2022-11-20T08:22:15;100186.28;;;3.79;100.00
16194;BME280;8204;53.582;10.080;2022-11-20T08:24:44;100179.59;;;3.77;100.00
16194;BME280;8204;53.582;10.080;2022-11-20T08:27:17;100177.31;;;3.83;100.00
16194;BME280;8204;53.582;10.080;2022-11-20T08:29:45;100177.59;;;3.90;100.00
16194;BME280;8204;53.582;10.080;2022-11-20T08:32:14;100178.16;;;3.93;100.00
16194;BME280;8204;53.582;10.080;2022-11-20T08:34:43;100180.66;;;4.04;100.00
16194;BME280;8204;53.582;10.080;2022-11-20T08:37:12;100178.06;;;4.04;100.00
16194;BME280;8204;53.582;10.080;2022-11-20T08:39:41;100203.88;;;4.06;100.00
16194;BME280;8204;53.582;10.080;2022-11-20T08:42:10;100209.06;;;4.06;100.00
16194;BME280;8204;53.582;10.080;2022-11-20T08:44:42;100201.47;;;4.14;100.00
16194;BME280;8204;53.582;10.080;2022-11-20T08:47:11;100217.97;;;4.13;100.00
16194;BME280;8204;53.582;10.080;2022-11-20T08:49:40;100213.44;;;4.15;100.00
16194;BME280;8204;53.582;10.080;2022-11-20T08:52:09;100223.78;;;4.05;100.00
16194;BME280;8204;53.582;10.080;2022-11-20T08:54:38;100221.47;;;4.02;100.00
16194;BME280;8204;53.582;10.080;2022-11-20T08:57:06;100221.28;;;3.94;100.00
16194;BME280;8204;53.582;10.080;2022-11-20T08:59:35;100215.84;;;3.97;100.00
16194;BME280;8204;53.582;10.080;2022-11-20T09:02:07;100188.88;;;4.09;100.00
16194;BME280;8204;53.582;10.080;2022-11-20T09:04:36;100191.34;;;4.11;100.00
16194;BME280;8204;53.582;10.080;2022-11-20T09:07:05;100167.47;;;4.17;100.00
16194;BME280;8204;53.582;10.080;2022-11-20T09:09:34;100184.38;;;4.11;100.00
16194;BME280;8204;53.582;10.080;2022-11-20T09:12:04;100162.16;;;4.18;100.00
16194;BME280;8204;53.582;10.080;2022-11-20T09:14:33;100151.53;;;4.31;100.00
16194;BME280;8204;53.582;10.080;2022-11-20T09:17:02;100160.41;;;4.28;100.00
16194;BME280;8204;53.582;10.080;2022-11-20T09:19:35;100166.84;;;4.33;100.00
16194;BME280;8204;53.582;10.080;2022-11-20T09:22:04;100156.06;;;4.38;100.00
16194;BME280;8204;53.582;10.080;2022-11-20T09:24:33;100163.69;;;4.30;100.00
16194;BME280;8204;53.582;10.080;2022-11-20T09:27:03;100153.59;;;4.36;100.00
16194;BME280;8204;53.582;10.080;2022-11-20T09:29:32;100149.09;;;4.29;100.00
16194;BME280;8204;53.582;10.080;2022-11-20T09:32:01;100130.00;;;4.30;100.00
16194;BME280;8204;53.582;10.080;2022-11-20T09:34:30;100113.44;;;4.22;100.00
16194;BME280;8204;53.582;10.080;2022-11-20T09:37:01;100095.28;;;4.22;100.00
16194;BME280;8204;53.582;10.080;2022-11-20T09:39:30;100084.13;;;4.21;100.00
16194;BME280;8204;53.582;10.080;2022-11-20T09:42:14;100074.31;;;4.25;100.00
16194;BME280;8204;53.582;10.080;2022-11-20T09:45:16;100090.25;;;4.20;100.00
16194;BME280;8204;53.582;10.080;2022-11-20T09:48:08;100092.16;;;4.18;100.00
16194;BME280;8204;53.582;10.080;2022-11-20T09:50:45;100112.59;;;4.02;100.00
16194;BME280;8204;53.582;10.080;2022-11-20T09:53:24;100099.63;;;4.02;100.00
16194;BME280;8204;53.582;10.080;2022-11-20T09:55:57;100083.25;;;4.11;100.00
16194;BME280;8204;53.582;10.080;2022-11-20T09:58:31;100076.47;;;4.10;100.00
16194;BME280;8204;53.582;10.080;2022-11-20T10:01:09;100081.34;;;4.04;100.00
16194;BME280;8204;53.582;10.080;2022-11-20T10:03:46;100082.16;;;4.04;100.00
16194;BME280;8204;53.582;10.080;2022-11-20T10:06:21;100079.31;;;3.98;100.00
16194;BME280;8204;53.582;10.080;2022-11-20T10:09:01;100067.44;;;3.95;100.00
16194;BME280;8204;53.582;10.080;2022-11-20T10:11:38;100059.38;;;3.98;100.00
16194;BME280;8204;53.582;10.080;2022-11-20T10:14:17;100049.44;;;4.03;100.00
16194;BME280;8204;53.582;10.080;2022-11-20T10:16:58;100066.34;;;3.98;100.00
16194;BME280;8204;53.582;10.080;2022-11-20T10:19:43;100068.41;;;4.04;100.00
16194;BME280;8204;53.582;10.080;2022-11-20T10:22:22;100071.00;;;4.13;100.00
16194;BME280;8204;53.582;10.080;2022-11-20T10:25:01;100067.22;;;4.17;100.00
16194;BME280;8204;53.582;10.080;2022-11-20T10:27:43;100069.25;;;4.23;100.00
16194;BME280;8204;53.582;10.080;2022-11-20T10:30:18;100089.00;;;4.24;100.00
16194;BME280;8204;53.582;10.080;2022-11-20T10:32:54;100096.13;;;4.22;100.00
16194;BME280;8204;53.582;10.080;2022-11-20T10:35:27;100096.00;;;4.33;100.00
16194;BME280;8204;53.582;10.080;2022-11-20T10:38:02;100125.31;;;4.24;100.00
16194;BME280;8204;53.582;10.080;2022-11-20T10:40:38;100121.78;;;4.25;100.00
16194;BME280;8204;53.582;10.080;2022-11-20T10:43:13;100110.59;;;4.34;100.00
16194;BME280;8204;53.582;10.080;2022-11-20T10:45:48;100116.75;;;4.33;100.00
16194;BME280;8204;53.582;10.080;2022-11-20T10:48:21;100128.34;;;4.29;100.00
16194;BME280;8204;53.582;10.080;2022-11-20T10:50:59;100133.81;;;4.35;100.00
16194;BME280;8204;53.582;10.080;2022-11-20T10:53:40;100133.25;;;4.41;100.00
16194;BME280;8204;53.582;10.080;2022-11-20T10:56:20;100155.25;;;4.47;100.00
16194;BME280;8204;53.582;10.080;2022-11-20T10:59:01;100180.78;;;4.42;100.00
16194;BME280;8204;53.582;10.080;2022-11-20T11:01:39;100176.72;;;4.49;100.00
16194;BME280;8204;53.582;10.080;2022-11-20T11:04:28;100189.53;;;4.60;100.00
16194;BME280;8204;53.582;10.080;2022-11-20T11:07:06;100179.44;;;4.66;100.00
16194;BME280;8204;53.582;10.080;2022-11-20T11:09:39;100181.09;;;4.67;100.00
16194;BME280;8204;53.582;10.080;2022-11-20T11:12:12;100181.22;;;4.75;100.00
16194;BME280;8204;53.582;10.080;2022-11-20T11:14:43;100203.22;;;4.71;100.00
16194;BME280;8204;53.582;10.080;2022-11-20T11:17:23;100211.13;;;4.70;100.00
16194;BME280;8204;53.582;10.080;2022-11-20T11:20:06;100222.19;;;4.72;100.00
16194;BME280;8204;53.582;10.080;2022-11-20T11:22:45;100234.63;;;4.68;100.00
16194;BME280;8204;53.582;10.080;2022-11-20T11:25:29;100217.84;;;4.82;100.00
16194;BME280;8204;53.582;10.080;2022-11-20T11:28:04;100206.09;;;4.78;100.00
16194;BME280;8204;53.582;10.080;2022-11-20T11:30:42;100208.44;;;4.81;100.00
16194;BME280;8204;53.582;10.080;2022-11-20T11:33:18;100203.25;;;4.81;100.00
16194;BME280;8204;53.582;10.080;2022-11-20T11:35:49;100185.72;;;4.83;100.00
16194;BME280;8204;53.582;10.080;2022-11-20T11:38:22;100189.72;;;4.77;100.00
16194;BME280;8204;53.582;10.080;2022-11-20T11:40:53;100182.19;;;4.84;100.00
16194;BME280;8204;53.582;10.080;2022-11-20T11:43:28;100195.84;;;4.86;100.00
16194;BME280;8204;53.582;10.080;2022-11-20T11:46:31;100215.94;;;4.84;100.00
16194;BME280;8204;53.582;10.080;2022-11-20T11:49:14;100249.09;;;4.71;100.00
16194;BME280;8204;53.582;10.080;2022-11-20T11:51:59;100285.78;;;4.57;100.00
16194;BME280;8204;53.582;10.080;2022-11-20T11:54:34;100292.19;;;4.53;100.00
16194;BME280;8204;53.582;10.080;2022-11-20T11:57:10;100300.41;;;4.58;100.00
16194;BME280;8204;53.582;10.080;2022-11-20T11:59:53;100301.34;;;4.57;100.00
16194;BME280;8204;53.582;10.080;2022-11-20T12:02:31;100300.94;;;4.52;100.00
16194;BME280;8204;53.582;10.080;2022-11-20T12:05:09;100301.22;;;4.49;100.00
16194;BME280;8204;53.582;10.080;2022-11-20T12:07:46;100304.22;;;4.54;100.00
16194;BME280;8204;53.582;10.080;2022-11-20T12:10:19;100296.31;;;4.55;100.00
16194;BME280;8204;53.582;10.080;2022-11-20T12:12:55;100314.31;;;4.57;100.00
16194;BME280;8204;53.582;10.080;2022-11-20T12:15:33;100303.44;;;4.63;100.00
16194;BME280;8204;53.582;10.080;2022-11-20T12:18:08;100319.53;;;4.66;100.00
16194;BME280;8204;53.582;10.080;2022-11-20T12:20:43;100320.38;;;4.67;100.00
16194;BME280;8204;53.582;10.080;2022-11-20T12:23:19;100325.81;;;4.64;100.00
16194;BME280;8204;53.582;10.080;2022-11-20T12:25:54;100317.66;;;4.68;100.00
16194;BME280;8204;53.582;10.080;2022-11-20T12:28:36;100295.81;;;4.71;100.00
16194;BME280;8204;53.582;10.080;2022-11-20T12:34:23;100316.72;;;4.79;100.00
16194;BME280;8204;53.582;10.080;2022-11-20T12:37:02;100323.41;;;4.72;100.00
16194;BME280;8204;53.582;10.080;2022-11-20T12:39:35;100306.19;;;4.71;100.00
16194;BME280;8204;53.582;10.080;2022-11-20T12:42:20;100303.75;;;4.79;100.00
16194;BME280;8204;53.582;10.080;2022-11-20T12:48:14;100310.19;;;4.75;100.00
16194;BME280;8204;53.582;10.080;2022-11-20T12:51:04;100298.03;;;4.85;100.00
16194;BME280;8204;53.582;10.080;2022-11-20T12:53:40;100291.88;;;4.86;100.00
16194;BME280;8204;53.582;10.080;2022-11-20T12:56:23;100294.66;;;5.03;100.00
16194;BME280;8204;53.582;10.080;2022-11-20T12:59:05;100306.69;;;5.13;100.00
16194;BME280;8204;53.582;10.080;2022-11-20T13:01:45;100307.25;;;5.17;100.00
16194;BME280;8204;53.582;10.080;2022-11-20T13:04:31;100328.69;;;5.19;100.00
16194;BME280;8204;53.582;10.080;2022-11-20T13:07:04;100340.47;;;5.13;100.00
16194;BME280;8204;53.582;10.080;2022-11-20T13:09:36;100342.91;;;5.15;100.00
16194;BME280;8204;53.582;10.080;2022-11-20T13:12:11;100354.09;;;5.15;100.00
16194;BME280;8204;53.582;10.080;2022-11-20T13:14:46;100341.56;;;5.20;100.00
16194;BME280;8204;53.582;10.080;2022-11-20T13:17:24;100356.06;;;5.23;100.00
16194;BME280;8204;53.582;10.080;2022-11-20T13:19:57;100343.31;;;5.20;100.00
16194;BME280;8204;53.582;10.080;2022-11-20T13:22:29;100342.34;;;5.11;100.00